Park Rapids, Minnesota
Current Conditions -  °F | °C
As of 8:53 AM on Friday 31 Oct 2014 (Local Time) from KPKD Reporting Station
Clear Clear  
Wind Chill: 17°   Ceiling: Unl
Heat Index: 17°   Visibility: 10mi
Dew Point: 15°   Wind: 3mph
Humidity: 92%   Direction: 290°WNW
Pressure: 30.57"   Gusts: NA
Location:  46.92°N, 95.06°W
Report Text: KPKD 311353Z AUTO 29003KT 10SM CLR M08/M09 A3057 RMK AO2 SLP378 T10831094 TSNO
Loading
Personal Weather Stations






























Interactive Weather Map
Tropical Storm Tracking
New forecast layout! Learn more

10-Day Weather Forecast

Advertisements
Track Severe Weather on mobile